Morgantown, West Virginia
Current Conditions -  °F | °C
As of 11:53 PM on Friday 24 Oct 2014 (Local Time) from KMGW Reporting Station
Clear Clear  
Wind Chill: 49°   Ceiling: Unl
Heat Index: 49°   Visibility: 10mi
Dew Point: 38°   Wind: 3mph
Humidity: 66%   Direction: 210°SSW
Pressure: 30.05"   Gusts: NA
Location:  39.63°N, 79.96°W
Report Text: KMGW 250353Z AUTO 21003KT 10SM CLR 09/03 A3005 RMK AO2 SLP177 T00940033 TSNO
Loading
Personal Weather Stations






























Interactive Weather Map
Tropical Storm Tracking
New forecast layout! Learn more

10-Day Weather Forecast

Advertisements
Track Severe Weather on mobile